Terminal Aerodrome Forecast
Issued by NWS North Platte, NE

Home | Current Version | Previous Version | Text Only | Print | Product List | Glossary On
Versions: 1 2 3 4 5 6 7 8 9 10 11 12 13 14 15 16 17 18
690
FTUS43 KLBF 010520
TAFVTN
TAF
KVTN 010520Z 0106/0206 35011KT P6SM BKN200
     FM011000 32010KT P6SM SCT250
     FM011400 32014G23KT P6SM FEW200
     FM011700 32024G34KT P6SM SCT100
     FM020100 29010KT P6SM SCT100=

USA.gov is the U.S. government's official web portal to all federal, state and local government web resources and services.